Time;durP1;ratioP1;P1;durP2;ratioP2;P2;SDS_P1;SDS_P2;PMS_P1;PMS_P2;Temp;Humidity;BMP_temperature;BMP_pressure;BME280_temperature;BME280_humidity;BME280_pressure;Samples;Min_cycle;Max_cycle;Signal;HPM_P1;HPM_P2
2023/09/04 00:00:39;;;;;;;5.73;5.23;;;19.00;86.20;;;21.71;55.96;102787.38;5015650;28;20221;-65
2023/09/04 00:03:06;;;;;;;8.40;6.33;;;19.00;86.20;;;21.69;55.72;102791.28;5015778;28;20191;-65
2023/09/04 00:05:36;;;;;;;5.13;4.67;;;19.00;86.20;;;21.69;55.85;102791.28;5015568;28;20636;-64
2023/09/04 00:08:05;;;;;;;5.10;4.60;;;19.00;86.20;;;21.68;55.58;102787.75;5025618;28;20278;-63
2023/09/04 00:10:32;;;;;;;6.80;6.17;;;18.90;86.10;;;21.69;55.34;102791.28;5032122;28;20217;-64
2023/09/04 00:12:59;;;;;;;5.00;4.60;;;18.90;86.20;;;21.69;55.64;102796.63;5016003;28;20548;-64
2023/09/04 00:15:26;;;;;;;4.90;4.40;;;18.90;86.20;;;21.69;55.36;102792.09;5015281;28;20313;-66
2023/09/04 00:17:53;;;;;;;4.50;4.10;;;18.90;86.10;;;21.68;55.47;102785.06;5015750;28;20188;-66
2023/09/04 00:20:30;;;;;;;4.70;4.10;;;18.90;86.10;;;21.69;55.64;102783.22;5015175;28;20195;-66
2023/09/04 00:22:57;;;;;;;5.57;5.07;;;18.90;86.20;;;21.68;55.84;102792.31;5015392;28;20269;-65
2023/09/04 00:25:25;;;;;;;6.07;5.47;;;18.90;86.30;;;21.68;55.81;102790.44;5013702;28;20290;-65
2023/09/04 00:27:54;;;;;;;5.67;5.07;;;18.90;86.40;;;21.68;55.34;102781.59;5015095;28;20222;-64
2023/09/04 00:30:22;;;;;;;5.40;4.90;;;18.80;86.20;;;21.69;55.80;102775.19;5015285;28;20286;-64
2023/09/04 00:32:49;;;;;;;5.17;4.67;;;18.80;86.50;;;21.68;55.50;102781.59;5015090;28;20254;-65
2023/09/04 00:35:16;;;;;;;6.23;5.50;;;18.80;86.50;;;21.62;55.21;102777.84;5013885;28;20556;-65
2023/09/04 00:37:43;;;;;;;4.47;4.07;;;18.80;87.10;;;21.58;55.34;102774.72;5014675;28;20314;-65
2023/09/04 00:40:11;;;;;;;4.07;3.67;;;18.80;86.20;;;21.55;55.28;102767.09;5032364;28;20206;-68
2023/09/04 00:42:39;;;;;;;5.37;4.70;;;18.80;86.30;;;21.54;55.96;102769.94;5034807;28;20186;-65
2023/09/04 00:45:11;;;;;;;4.77;4.37;;;18.70;86.20;;;21.52;55.34;102778.19;5023970;28;20221;-65
2023/09/04 00:47:42;;;;;;;4.80;4.40;;;18.70;86.10;;;21.47;55.36;102782.47;5015020;28;20688;-64
2023/09/04 00:50:15;;;;;;;5.03;4.53;;;18.70;86.30;;;21.43;55.44;102775.84;5014822;28;20242;-65
2023/09/04 00:52:42;;;;;;;5.13;4.70;;;18.70;86.30;;;21.39;55.91;102770.06;5014629;28;20258;-64
2023/09/04 00:55:10;;;;;;;4.83;4.30;;;18.60;86.30;;;21.34;55.86;102774.34;5013974;28;20247;-64
2023/09/04 00:57:42;;;;;;;5.97;4.33;;;18.60;86.50;;;21.29;55.90;102768.75;5014479;28;20200;-65
2023/09/04 01:00:14;;;;;;;5.07;4.60;;;18.60;86.60;;;21.28;56.22;102767.09;5014862;28;20608;-64
2023/09/04 01:02:41;;;;;;;4.70;4.30;;;18.50;86.70;;;21.26;56.47;102772.66;5014652;28;20570;-65
2023/09/04 01:05:09;;;;;;;6.07;4.37;;;18.50;87.00;;;21.26;55.89;102775.31;5014393;28;20280;-65
2023/09/04 01:07:39;;;;;;;5.13;4.63;;;18.50;87.00;;;21.26;55.97;102769.97;5014727;28;20674;-65
2023/09/04 01:10:08;;;;;;;6.20;5.53;;;18.50;87.00;;;21.24;56.21;102768.50;5014353;28;20199;-64
2023/09/04 01:12:46;;;;;;;4.80;4.40;;;18.50;86.90;;;21.16;56.36;102769.47;5014339;28;20201;-64
2023/09/04 01:15:14;;;;;;;5.20;4.60;;;18.50;86.90;;;21.13;56.23;102788.63;5014028;28;20306;-63
2023/09/04 01:17:44;;;;;;;4.80;4.40;;;18.40;86.80;;;21.11;56.67;102787.16;5014046;28;20249;-62
2023/09/04 01:20:26;;;;;;;4.93;4.17;;;18.40;86.90;;;21.06;56.54;102789.59;5028798;28;20225;-64
2023/09/04 01:22:53;;;;;;;4.77;4.10;;;18.40;87.10;;;;;;5020008;28;20234;-63
2023/09/04 01:25:22;;;;;;;4.83;4.03;;;18.40;87.20;;;21.13;56.75;102791.31;5014216;28;20225;-63
2023/09/04 01:27:57;;;;;;;4.87;4.43;;;18.30;87.10;;;21.14;56.13;102790.28;5014461;28;20196;-65
2023/09/04 01:30:38;;;;;;;4.37;4.00;;;18.40;87.20;;;21.14;56.40;102787.59;5014284;28;20244;-64
2023/09/04 01:33:13;;;;;;;4.90;3.90;;;18.30;86.90;;;21.14;56.21;102782.22;5014196;28;20563;-63
2023/09/04 01:35:46;;;;;;;5.10;4.67;;;18.30;86.80;;;21.13;56.24;102780.59;5013676;28;20294;-66
2023/09/04 01:38:14;;;;;;;5.53;4.63;;;18.30;86.90;;;21.10;56.36;102775.63;5015678;28;20205;-65
2023/09/04 01:40:42;;;;;;;5.87;5.00;;;18.40;86.90;;;21.07;55.91;102777.84;5033748;28;20193;-63
2023/09/04 01:43:09;;;;;;;5.40;4.90;;;18.30;86.70;;;21.06;56.23;102779.69;5033776;28;20183;-64
2023/09/04 01:45:36;;;;;;;4.50;4.10;;;18.30;86.70;;;21.06;56.53;102770.84;5019322;28;20714;-64
2023/09/04 01:48:04;;;;;;;4.73;4.33;;;18.30;86.80;;;21.05;56.34;102766.50;5014015;28;20197;-65
2023/09/04 01:50:31;;;;;;;4.40;4.00;;;18.30;86.90;;;21.04;56.28;102771.00;5014040;28;20195;-64
2023/09/04 01:53:00;;;;;;;5.00;4.50;;;18.30;86.80;;;21.05;56.51;102771.84;5014007;28;20207;-64
2023/09/04 01:55:27;;;;;;;4.80;3.60;;;18.30;87.30;;;21.06;55.90;102773.53;5013514;28;20305;-64
2023/09/04 01:57:54;;;;;;;4.43;3.67;;;18.30;87.20;;;21.08;56.58;102776.84;5013791;28;20187;-64
2023/09/04 02:00:21;;;;;;;3.87;3.57;;;18.20;87.30;;;21.09;55.89;102776.63;5014020;28;20278;-64
2023/09/04 02:02:49;;;;;;;3.93;3.53;;;18.20;87.10;;;21.07;55.83;102765.28;5013798;28;20191;-65
2023/09/04 02:05:16;;;;;;;4.17;3.77;;;18.20;86.90;;;21.07;55.83;102765.28;5014115;28;20325;-64
2023/09/04 02:07:43;;;;;;;4.40;4.00;;;18.20;87.00;;;21.07;56.34;102770.63;5028996;28;20195;-65
2023/09/04 02:10:12;;;;;;;4.90;4.50;;;18.20;87.20;;;21.07;56.37;102767.97;5013840;28;20199;-65
2023/09/04 02:12:39;;;;;;;4.40;4.00;;;18.20;87.30;;;21.07;56.57;102769.81;5013959;28;20197;-64
2023/09/04 02:15:07;;;;;;;4.63;4.23;;;18.20;87.60;;;21.04;56.55;102771.00;5013403;28;20310;-64
2023/09/04 02:17:34;;;;;;;4.90;4.50;;;18.20;87.70;;;21.04;56.58;102779.03;5013684;28;20195;-64
2023/09/04 02:20:04;;;;;;;4.63;4.23;;;18.20;87.90;;;21.05;56.47;102767.34;5013840;28;20676;-66
2023/09/04 02:22:40;;;;;;;4.70;4.10;;;18.20;87.90;;;21.05;56.72;102772.69;5013661;28;20183;-64
2023/09/04 02:25:23;;;;;;;4.53;4.13;;;18.20;87.80;;;21.06;56.45;102768.97;4939180;29;20308;-64
2023/09/04 02:27:51;;;;;;;4.57;4.17;;;18.20;88.20;;;21.10;56.46;102780.97;4953120;29;20197;-63
2023/09/04 02:30:18;;;;;;;4.53;4.10;;;18.20;87.90;;;21.09;56.15;102783.81;4953393;29;20669;-64
2023/09/04 02:32:46;;;;;;;4.73;4.33;;;18.20;87.40;;;21.04;56.34;102781.69;4953117;29;20197;-64
2023/09/04 02:35:13;;;;;;;3.17;2.97;;;18.20;87.70;;;20.99;56.26;102768.06;4953034;29;20236;-64
2023/09/04 02:37:44;;;;;;;3.73;3.43;;;18.20;87.10;;;20.98;56.53;102776.28;4952941;29;20328;-65
2023/09/04 02:40:12;;;;;;;4.13;3.83;;;18.20;87.70;;;20.99;56.20;102778.78;4970669;28;20209;-64
2023/09/04 02:42:40;;;;;;;4.17;3.80;;;18.20;87.60;;;21.01;56.88;102775.91;4972830;28;20201;-64
2023/09/04 02:45:09;;;;;;;4.60;4.20;;;18.20;87.70;;;21.05;56.55;102769.19;4952610;28;20269;-65
2023/09/04 02:47:37;;;;;;;3.63;3.33;;;18.20;87.70;;;21.05;56.20;102761.97;4941123;28;20284;-65
2023/09/04 02:50:06;;;;;;;3.77;3.47;;;18.20;87.30;;;21.06;56.49;102763.63;4956483;29;20320;-64
2023/09/04 02:52:33;;;;;;;3.93;3.53;;;18.20;87.50;;;21.08;56.06;102766.94;4956419;29;20246;-64
2023/09/04 02:55:02;;;;;;;3.43;3.13;;;18.30;87.20;;;21.08;55.67;102761.59;4956462;28;20220;-64
2023/09/04 02:57:30;;;;;;;3.83;3.53;;;18.30;86.90;;;21.06;55.96;102763.63;5016465;28;20525;-64
2023/09/04 03:00:00;;;;;;;3.77;3.47;;;18.20;86.60;;;21.05;55.98;102759.28;5016471;28;20322;-64
2023/09/04 03:02:28;;;;;;;4.17;3.77;;;18.20;86.60;;;21.03;56.20;102753.28;5016088;28;20278;-65
2023/09/04 03:04:56;;;;;;;4.10;3.80;;;18.20;86.70;;;21.03;56.24;102752.44;5016523;28;20215;-64
2023/09/04 03:07:27;;;;;;;4.03;3.73;;;18.20;86.90;;;21.01;55.87;102749.13;5016517;28;20218;-64
2023/09/04 03:09:55;;;;;;;4.20;3.87;;;18.20;87.30;;;20.99;56.35;102752.00;5017024;28;20539;-64
2023/09/04 03:12:23;;;;;;;3.70;3.50;;;18.10;87.10;;;20.99;55.99;102752.00;5016383;28;20206;-64
2023/09/04 03:15:00;;;;;;;4.30;3.90;;;18.10;87.10;;;20.96;55.82;102746.22;5016383;28;20215;-64
2023/09/04 03:17:29;;;;;;;4.83;4.43;;;18.10;87.00;;;20.96;56.04;102747.03;5016310;28;20230;-65
2023/09/04 03:19:58;;;;;;;4.30;3.90;;;18.10;87.00;;;20.94;55.93;102746.41;5016365;28;20554;-64
2023/09/04 03:22:27;;;;;;;4.20;3.90;;;18.10;87.10;;;20.92;55.97;102745.75;5026603;28;20195;-66
2023/09/04 03:24:54;;;;;;;5.60;3.30;;;18.10;87.30;;;20.89;56.13;102749.63;5033403;28;20192;-64
2023/09/04 03:27:21;;;;;;;3.90;3.27;;;18.00;86.80;;;20.85;56.02;102756.41;5016624;28;20565;-63
2023/09/04 03:29:48;;;;;;;4.53;3.80;;;18.00;86.70;;;20.82;55.98;102745.28;5016641;28;20732;-64
2023/09/04 03:32:16;;;;;;;4.53;3.43;;;18.00;86.80;;;20.80;55.95;102752.69;5016414;28;20261;-64
2023/09/04 03:34:43;;;;;;;5.77;3.63;;;18.00;86.90;;;20.78;56.03;102749.34;5015896;28;20688;-64
2023/09/04 03:37:10;;;;;;;3.83;3.53;;;17.90;87.20;;;20.76;56.53;102751.38;5016211;28;20278;-66
2023/09/04 03:39:38;;;;;;;4.27;3.87;;;17.90;87.40;;;20.74;56.36;102743.56;5016472;28;20278;-67
2023/09/04 03:42:06;;;;;;;4.00;3.70;;;17.90;87.50;;;20.75;56.37;102755.09;5016075;28;20199;-68
2023/09/04 03:44:33;;;;;;;5.10;4.60;;;17.90;87.40;;;20.73;56.05;102751.75;5015868;28;20277;-65
2023/09/04 03:47:00;;;;;;;7.63;4.17;;;17.90;87.10;;;20.64;56.45;102751.06;5015707;28;20191;-64
2023/09/04 03:49:29;;;;;;;4.87;4.40;;;17.90;87.10;;;20.58;56.01;102754.53;5015841;28;20554;-65
2023/09/04 03:51:56;;;;;;;3.67;3.37;;;17.80;87.00;;;20.54;56.72;102752.41;5015930;28;20219;-65
2023/09/04 03:54:23;;;;;;;4.53;4.23;;;17.80;87.50;;;20.52;56.73;102754.44;5015183;28;20225;-65
2023/09/04 03:56:50;;;;;;;8.30;5.07;;;17.80;87.50;;;20.50;56.74;102756.47;5015275;28;20314;-65
2023/09/04 03:59:17;;;;;;;5.33;4.80;;;17.70;87.50;;;20.43;56.42;102756.41;5015626;28;20607;-65
2023/09/04 04:01:44;;;;;;;5.40;4.90;;;17.70;87.20;;;20.35;56.97;102759.19;5015700;28;20290;-66
2023/09/04 04:04:12;;;;;;;5.17;4.77;;;17.70;87.20;;;20.30;56.86;102763.47;5015505;28;20180;-64
2023/09/04 04:06:40;;;;;;;7.83;6.70;;;17.60;87.30;;;20.23;56.96;102763.38;5015334;28;20219;-65
2023/09/04 04:09:08;;;;;;;5.43;5.03;;;17.50;87.40;;;20.16;56.85;102759.75;5015614;28;20191;-65
2023/09/04 04:11:38;;;;;;;5.23;4.83;;;17.50;87.40;;;20.11;57.24;102757.66;5015341;28;20562;-66
2023/09/04 04:14:06;;;;;;;5.97;5.57;;;17.40;87.50;;;20.08;56.96;102758.06;5015409;28;20207;-65
2023/09/04 04:16:36;;;;;;;7.27;6.60;;;17.40;87.70;;;20.01;57.27;102757.16;5014846;28;20211;-65
2023/09/04 04:19:04;;;;;;;6.63;6.13;;;17.30;87.90;;;19.94;57.15;102758.06;5020777;28;20183;-65
2023/09/04 04:21:31;;;;;;;7.93;6.10;;;17.30;87.90;;;19.89;57.76;102760.47;5022354;28;20273;-64
2023/09/04 04:24:00;;;;;;;7.00;6.30;;;17.20;87.90;;;19.85;57.39;102760.00;5035418;28;20198;-64
2023/09/04 04:26:27;;;;;;;6.87;6.20;;;17.20;88.10;;;19.83;57.85;102764.69;5019287;28;20235;-65
2023/09/04 04:28:54;;;;;;;6.53;5.63;;;17.10;88.30;;;19.86;58.03;102761.66;5015099;28;20187;-66
2023/09/04 04:31:22;;;;;;;6.90;6.20;;;17.10;88.90;;;19.88;57.74;102773.00;5014079;28;20290;-66
2023/09/04 04:33:49;;;;;;;7.67;6.97;;;17.10;88.60;;;19.86;57.75;102775.03;5014984;28;20222;-63
2023/09/04 04:36:16;;;;;;;6.00;5.50;;;17.10;88.40;;;19.85;57.86;102783.25;4995022;28;20235;-65
2023/09/04 04:38:43;;;;;;;6.97;6.37;;;17.10;88.50;;;19.87;57.73;102771.31;5006405;28;20196;-64
2023/09/04 04:41:11;;;;;;;7.10;6.50;;;17.10;88.60;;;19.89;57.48;102779.19;5034585;28;20202;-63
2023/09/04 04:43:38;;;;;;;6.50;5.77;;;17.10;88.80;;;19.92;57.84;102773.47;5034138;28;20195;-65
2023/09/04 04:46:06;;;;;;;6.97;6.40;;;17.10;88.90;;;19.94;58.07;102777.63;5016409;28;20230;-65
2023/09/04 04:48:33;;;;;;;6.87;6.23;;;17.10;89.20;;;20.00;57.56;102779.53;5011458;28;20231;-64
2023/09/04 04:51:00;;;;;;;7.30;6.70;;;17.20;89.10;;;20.03;57.80;102776.50;5003647;28;20191;-64
2023/09/04 04:53:27;;;;;;;7.63;6.93;;;17.20;89.10;;;20.03;57.50;102789.03;5014894;28;20191;-64
2023/09/04 04:55:54;;;;;;;7.33;6.60;;;17.20;88.30;;;20.01;57.09;102789.22;5013748;28;20261;-63
2023/09/04 04:58:22;;;;;;;6.93;6.23;;;17.20;88.50;;;20.04;57.98;102783.47;5014291;28;20195;-68
2023/09/04 05:00:50;;;;;;;7.07;6.47;;;17.20;89.10;;;20.08;57.44;102784.78;5014640;28;20194;-67
2023/09/04 05:03:17;;;;;;;6.17;5.67;;;17.30;89.00;;;20.12;57.56;102785.22;5014689;28;20262;-66
2023/09/04 05:05:45;;;;;;;6.10;5.57;;;17.30;88.80;;;20.19;57.41;102786.16;5014157;28;20207;-63
2023/09/04 05:08:13;;;;;;;7.00;6.40;;;17.30;89.20;;;20.25;57.17;102780.91;5014244;28;20747;-65
2023/09/04 05:10:40;;;;;;;7.40;6.37;;;17.40;88.90;;;20.32;56.98;102769.47;5013793;28;20226;-65
2023/09/04 05:13:07;;;;;;;6.70;6.10;;;17.40;88.70;;;20.35;57.02;102769.91;5014303;28;20218;-66
2023/09/04 05:15:35;;;;;;;7.47;6.77;;;17.50;88.60;;;20.40;56.64;102772.84;5013988;28;20311;-66
2023/09/04 05:18:03;;;;;;;7.77;7.07;;;17.50;88.20;;;20.46;56.93;102765.91;5014020;28;20200;-63
2023/09/04 05:20:31;;;;;;;6.60;6.00;;;17.60;88.20;;;20.51;56.60;102774.19;5030695;28;20560;-64
2023/09/04 05:22:58;;;;;;;6.83;5.87;;;17.70;88.00;;;20.54;56.40;102768.47;5033667;28;20717;-63
2023/09/04 05:25:28;;;;;;;7.43;6.73;;;17.70;87.90;;;20.56;56.76;102769.13;5025226;28;20233;-67
2023/09/04 05:27:55;;;;;;;5.40;4.90;;;17.70;87.60;;;20.60;56.08;102775.72;5013754;28;20199;-66
2023/09/04 05:30:22;;;;;;;5.40;4.97;;;17.70;87.50;;;20.61;55.93;102772.06;5013602;28;20278;-63
2023/09/04 05:32:53;;;;;;;5.53;5.03;;;17.80;87.40;;;20.60;56.17;102767.69;5013200;28;20273;-65
2023/09/04 05:35:21;;;;;;;5.97;5.40;;;17.80;87.10;;;20.58;55.76;102769.75;5013267;28;20215;-65
2023/09/04 05:37:48;;;;;;;6.43;5.63;;;17.80;87.10;;;20.57;56.12;102768.06;5013341;28;20187;-65
2023/09/04 05:40:15;;;;;;;7.03;5.73;;;17.70;87.00;;;20.58;56.03;102764.41;5013230;28;20601;-65
2023/09/04 05:42:42;;;;;;;5.93;5.43;;;17.80;86.90;;;20.57;55.92;102768.06;5013375;28;20616;-65
2023/09/04 05:45:10;;;;;;;7.60;5.53;;;17.70;87.00;;;20.58;56.32;102772.41;5014193;28;20532;-64
2023/09/04 05:47:37;;;;;;;6.53;5.67;;;17.70;87.20;;;20.60;55.82;102778.41;5013310;28;20191;-65
2023/09/04 05:50:09;;;;;;;8.57;5.60;;;17.70;87.20;;;20.62;56.11;102779.03;5012921;28;20202;-65
2023/09/04 05:52:37;;;;;;;5.80;5.10;;;17.80;87.40;;;20.64;55.93;102766.28;5013645;28;20188;-64
2023/09/04 05:55:05;;;;;;;6.03;5.43;;;17.80;87.40;;;20.68;55.93;102783.66;5012614;28;20285;-66
2023/09/04 05:57:32;;;;;;;7.47;4.97;;;17.80;87.50;;;20.72;55.85;102782.25;5013168;28;20179;-65
2023/09/04 05:59:59;;;;;;;6.13;5.53;;;17.80;87.50;;;20.76;55.82;102787.03;5013049;28;20318;-66
2023/09/04 06:02:27;;;;;;;6.20;5.23;;;17.90;87.40;;;20.82;55.97;102780.06;5013115;28;20203;-64
2023/09/04 06:04:54;;;;;;;5.90;5.30;;;17.90;87.30;;;20.88;55.74;102792.69;5012981;28;20195;-64
2023/09/04 06:07:22;;;;;;;7.03;6.03;;;18.00;87.50;;;20.93;55.77;102791.09;5012982;28;20252;-64
2023/09/04 06:09:49;;;;;;;7.60;6.53;;;18.00;87.30;;;21.02;55.69;102796.31;5012123;28;20198;-64
2023/09/04 06:12:16;;;;;;;6.93;6.23;;;18.10;87.40;;;21.12;55.82;102797.69;4997841;28;20253;-65
2023/09/04 06:14:43;;;;;;;6.00;5.50;;;18.10;87.20;;;21.19;55.74;102795.88;5012590;28;20214;-64
2023/09/04 06:17:10;;;;;;;5.70;5.10;;;18.20;86.90;;;21.25;55.16;102797.78;5010920;28;20229;-65
2023/09/04 06:19:41;;;;;;;6.67;5.97;;;18.30;86.70;;;21.32;55.42;102812.03;5022879;28;20279;-65
2023/09/04 06:22:09;;;;;;;6.70;6.10;;;18.40;86.70;;;21.38;54.78;102803.25;5027470;28;20304;-65
2023/09/04 06:24:37;;;;;;;7.00;6.27;;;18.50;86.30;;;21.40;54.80;102806.56;5017171;28;20199;-65
2023/09/04 06:27:05;;;;;;;6.87;6.10;;;18.50;85.80;;;21.42;54.32;102801.81;5012627;28;20215;-66
2023/09/04 06:29:32;;;;;;;6.43;5.77;;;18.50;85.80;;;21.43;54.47;102802.66;5016023;28;20274;-67
2023/09/04 06:31:59;;;;;;;6.87;6.17;;;18.50;85.60;;;21.50;54.23;102800.84;5014171;28;20307;-66
2023/09/04 06:34:28;;;;;;;6.70;5.83;;;18.50;85.90;;;21.56;54.56;102802.75;5017044;28;20671;-65
2023/09/04 06:36:55;;;;;;;6.17;5.57;;;18.60;85.70;;;21.63;54.11;102808.16;5016358;28;20301;-68
2023/09/04 06:39:22;;;;;;;5.63;5.10;;;18.70;85.70;;;21.71;54.17;102807.97;5028175;28;20213;-66
2023/09/04 06:41:51;;;;;;;6.97;6.27;;;18.70;85.60;;;21.79;53.79;102813.22;5036573;28;20740;-66
2023/09/04 06:44:18;;;;;;;8.33;7.07;;;18.80;85.10;;;21.83;54.13;102809.09;5016220;28;20604;-67
2023/09/04 06:46:45;;;;;;;7.77;7.07;;;18.80;84.90;;;21.87;54.02;102799.69;5015204;28;20301;-67
2023/09/04 06:49:13;;;;;;;10.00;8.97;;;18.90;84.80;;;21.92;53.52;102803.41;5016377;28;20278;-64
2023/09/04 06:51:40;;;;;;;10.43;9.40;;;19.00;84.40;;;21.94;53.04;102798.66;5015441;28;20197;-65
2023/09/04 06:54:11;;;;;;;9.27;8.07;;;19.00;84.00;;;21.98;53.24;102797.25;5016487;28;20273;-66
2023/09/04 06:56:38;;;;;;;10.13;8.27;;;19.10;84.30;;;22.07;53.35;102800.59;4998813;28;20266;-65
2023/09/04 06:59:07;;;;;;;10.97;8.67;;;19.10;84.20;;;22.12;53.15;102803.50;5016103;28;20834;-65
2023/09/04 07:01:34;;;;;;;8.50;7.70;;;19.10;84.00;;;22.15;53.05;102801.25;5016855;28;20282;-66
2023/09/04 07:04:01;;;;;;;7.73;7.03;;;19.20;84.00;;;22.21;52.99;102799.63;5015960;28;20265;-65
2023/09/04 07:06:28;;;;;;;6.90;6.30;;;19.20;83.80;;;22.25;52.72;102808.91;5014881;28;20227;-65
2023/09/04 07:08:55;;;;;;;8.60;6.43;;;19.30;83.60;;;22.35;52.87;102798.63;5015979;28;20278;-67
2023/09/04 07:11:22;;;;;;;6.60;6.00;;;19.40;83.90;;;22.57;52.78;102802.84;5015585;28;20195;-65
2023/09/04 07:13:49;;;;;;;7.90;5.70;;;19.50;84.20;;;23.05;52.34;102800.88;5015372;28;20701;-64
2023/09/04 07:16:17;;;;;;;7.27;6.00;;;19.70;84.70;;;23.71;51.64;102801.66;4995605;28;20228;-66
2023/09/04 07:19:04;;;;;;;5.37;4.87;;;19.90;84.60;;;24.57;49.53;102792.22;5008262;28;20213;-65
2023/09/04 07:21:31;;;;;;;4.83;4.43;;;20.40;83.60;;;25.29;47.81;102801.63;5009714;28;20217;-65
2023/09/04 07:23:58;;;;;;;4.27;3.97;;;20.80;81.40;;;25.98;46.57;102801.34;5014321;28;20202;-65
2023/09/04 07:26:25;;;;;;;4.20;3.80;;;21.40;79.70;;;26.70;45.07;102801.22;5013719;28;20223;-67
2023/09/04 07:28:53;;;;;;;4.40;4.00;;;22.00;79.30;;;27.53;43.58;102803.81;5015753;28;20187;-65
2023/09/04 07:31:22;;;;;;;4.30;3.93;;;22.60;76.90;;;28.39;41.34;102802.91;5015821;28;20191;-64
2023/09/04 07:33:50;;;;;;;6.43;3.60;;;23.30;74.20;;;29.08;39.10;102794.38;5014506;28;20278;-66
2023/09/04 07:36:17;;;;;;;5.47;4.90;;;23.90;70.50;;;29.62;37.76;102800.91;4998885;28;20760;-66
2023/09/04 07:38:46;;;;;;;6.37;4.37;;;24.50;67.50;;;30.08;37.01;102788.75;5015246;28;20230;-65
2023/09/04 07:41:13;;;;;;;8.07;4.47;;;25.10;67.00;;;30.67;36.72;102787.75;5035081;28;20274;-66
2023/09/04 07:43:40;;;;;;;8.10;4.90;;;25.60;65.70;;;31.31;35.36;102793.16;5020575;28;20563;-65
2023/09/04 07:46:07;;;;;;;5.97;4.03;;;26.10;64.40;;;31.96;33.64;102793.53;5015337;28;20254;-65
2023/09/04 07:48:36;;;;;;;6.10;3.90;;;26.60;61.80;;;32.66;33.31;102792.88;5013905;28;20225;-65
2023/09/04 07:51:09;;;;;;;5.33;3.83;;;27.20;61.00;;;33.30;31.93;102804.06;5018633;28;20536;-64
2023/09/04 07:53:58;;;;;;;4.87;3.43;;;27.80;57.90;;;33.87;30.92;102798.16;5008162;28;20271;-66
2023/09/04 07:56:25;;;;;;;4.63;4.23;;;28.40;56.90;;;34.36;30.01;102792.69;5007512;28;20219;-64
2023/09/04 07:58:52;;;;;;;5.03;4.07;;;28.90;55.50;;;35.01;29.45;102796.03;5003945;28;20282;-67
2023/09/04 08:01:19;;;;;;;3.73;3.33;;;29.40;53.80;;;35.38;28.10;102788.00;5012280;28;20198;-64
2023/09/04 08:03:47;;;;;;;5.53;3.80;;;29.70;51.30;;;35.47;27.22;102786.22;5013063;28;20245;-66
2023/09/04 08:06:15;;;;;;;5.17;3.57;;;30.00;49.60;;;35.55;27.77;102788.38;5030925;28;20297;-66
2023/09/04 08:08:42;;;;;;;4.35;3.42;;;30.30;49.20;;;35.74;27.44;102791.97;5013242;28;20215;-66
2023/09/04 08:11:09;;;;;;;4.15;3.25;;;30.50;48.80;;;36.06;27.38;102793.22;5016361;28;20653;-66
2023/09/04 08:13:36;;;;;;;5.63;3.58;;;30.70;48.00;;;36.39;25.89;102787.50;5022261;28;20277;-66
2023/09/04 08:16:04;;;;;;;3.55;3.22;;;30.90;46.60;;;36.78;25.63;102795.38;5020344;28;20661;-65
2023/09/04 08:18:31;;;;;;;3.72;3.42;;;31.20;46.90;;;37.16;25.41;102796.09;5015604;28;20413;-66
2023/09/04 08:20:59;;;;;;;3.15;2.95;;;31.40;45.30;;;37.40;24.45;102793.19;5019524;28;20687;-65
2023/09/04 08:23:27;;;;;;;3.30;3.00;;;31.50;43.80;;;37.10;24.12;102792.66;5013047;28;20234;-65
2023/09/04 08:25:58;;;;;;;2.88;2.67;;;31.50;42.80;;;36.76;24.72;102792.13;5029329;28;20697;-67
2023/09/04 08:28:25;;;;;;;2.88;2.67;;;31.50;42.70;;;36.79;25.00;102797.03;5021908;28;20187;-66
2023/09/04 08:30:53;;;;;;;3.45;2.65;;;31.60;43.20;;;36.64;24.65;102800.84;5013939;28;20201;-65
2023/09/04 08:33:20;;;;;;;2.38;2.17;;;31.40;42.20;;;36.64;25.57;102794.53;5013090;28;20690;-65
2023/09/04 08:35:50;;;;;;;2.60;2.40;;;31.50;43.40;;;36.97;24.31;102779.69;5029239;28;20268;-65
2023/09/04 08:38:19;;;;;;;2.28;2.17;;;31.50;42.40;;;36.94;25.00;102793.22;5014876;28;20218;-64
2023/09/04 08:40:47;;;;;;;4.25;2.80;;;31.50;42.70;;;36.89;24.95;102796.84;5013717;28;20273;-66
2023/09/04 08:43:17;;;;;;;2.85;2.28;;;31.60;42.50;;;36.64;24.55;102805.50;5012830;28;20290;-66
2023/09/04 08:45:44;;;;;;;2.78;2.28;;;31.70;42.20;;;36.31;25.06;102801.91;5011996;28;20243;-65
2023/09/04 08:48:13;;;;;;;2.15;2.05;;;31.70;42.90;;;36.41;25.17;102799.00;5015723;28;20203;-65
2023/09/04 08:50:42;;;;;;;3.25;2.35;;;31.70;42.30;;;36.80;25.13;102804.13;5013720;28;20206;-65
2023/09/04 08:53:10;;;;;;;2.70;2.50;;;31.60;42.50;;;36.88;24.07;102805.38;5013146;28;20234;-65
2023/09/04 08:55:38;;;;;;;2.35;2.15;;;31.40;41.10;;;36.73;24.01;102803.69;5009514;28;20320;-65
2023/09/04 08:58:07;;;;;;;2.58;2.30;;;31.40;41.90;;;36.88;24.40;102799.88;5006214;28;20294;-65
2023/09/04 09:00:34;;;;;;;3.42;2.80;;;31.50;42.10;;;37.07;24.00;102804.22;5045042;28;20282;-65
2023/09/04 09:03:03;;;;;;;2.58;2.40;;;31.50;41.90;;;37.43;23.56;102793.41;5013248;28;20209;-65
2023/09/04 09:05:33;;;;;;;3.72;2.53;;;31.70;41.60;;;37.77;23.61;102790.22;5012988;28;20680;-66
2023/09/04 09:08:04;;;;;;;2.83;2.40;;;31.90;42.10;;;38.38;22.88;102792.44;5007236;28;20195;-66
2023/09/04 09:10:32;;;;;;;2.50;2.30;;;32.20;40.70;;;38.62;23.12;102801.19;5022837;28;20222;-65
2023/09/04 09:13:00;;;;;;;3.47;2.92;;;32.50;40.90;;;39.09;22.29;102795.00;5013367;28;20195;-65
2023/09/04 09:15:30;;;;;;;2.38;2.00;;;32.80;40.10;;;39.40;21.26;102789.47;5033122;28;20332;-65
2023/09/04 09:17:58;;;;;;;2.33;2.13;;;33.00;38.20;;;39.07;21.21;102791.75;5021320;28;20222;-66
2023/09/04 09:20:33;;;;;;;4.15;3.75;;;32.90;38.30;;;39.15;21.91;102787.44;5014271;28;20222;-65
2023/09/04 09:23:01;;;;;;;2.55;2.30;;;33.20;38.30;;;39.38;21.52;102786.25;5019448;28;20646;-65
2023/09/04 09:25:29;;;;;;;2.72;2.53;;;33.40;38.60;;;39.64;20.59;102778.06;5012722;28;20580;-65
2023/09/04 09:28:04;;;;;;;2.55;2.35;;;33.40;37.20;;;39.57;21.23;102773.00;5015268;28;20668;-65
2023/09/04 09:30:35;;;;;;;2.00;1.80;;;33.50;37.10;;;39.55;21.01;102769.75;5010492;28;20257;-66
2023/09/04 09:33:16;;;;;;;2.00;1.90;;;33.60;37.60;;;40.10;20.78;102769.19;5022298;28;20191;-66
2023/09/04 09:35:44;;;;;;;2.40;2.20;;;33.80;36.80;;;40.57;20.09;102765.44;5022158;28;20268;-65
2023/09/04 09:38:11;;;;;;;4.32;2.10;;;34.10;36.60;;;40.63;20.20;102772.41;5027770;28;20726;-65
2023/09/04 09:40:38;;;;;;;1.90;1.80;;;34.10;35.60;;;40.52;20.22;102771.13;5014062;28;20682;-65
2023/09/04 09:43:08;;;;;;;3.50;2.20;;;34.20;35.20;;;40.32;20.42;102760.75;5020479;28;20266;-66
2023/09/04 09:45:36;;;;;;;3.03;2.83;;;34.20;35.40;;;40.39;20.43;102755.53;5023464;28;20215;-66
2023/09/04 09:48:04;;;;;;;2.03;1.88;;;34.30;36.10;;;40.70;20.03;102760.84;5018951;28;20194;-65
2023/09/04 09:50:32;;;;;;;3.13;2.05;;;34.40;35.70;;;40.60;19.52;102759.25;5032552;28;20201;-65
2023/09/04 09:53:01;;;;;;;2.80;2.00;;;34.40;34.60;;;40.34;19.69;102752.94;5017719;28;20195;-65
2023/09/04 09:55:31;;;;;;;6.15;2.30;;;34.40;34.50;;;40.47;19.75;102749.19;5012221;28;20753;-64
2023/09/04 09:58:00;;;;;;;2.42;2.22;;;34.50;35.30;;;40.47;20.22;102754.72;5018987;28;20504;-66
2023/09/04 10:00:29;;;;;;;1.92;1.83;;;34.40;35.10;;;40.86;19.85;102748.16;5028226;28;20431;-65
2023/09/04 10:02:57;;;;;;;1.80;1.70;;;34.60;35.50;;;41.34;19.93;102747.78;5030328;28;20195;-66
2023/09/04 10:05:26;;;;;;;2.20;2.00;;;34.80;36.00;;;41.54;19.38;102752.53;5035204;28;20218;-65
2023/09/04 10:07:59;;;;;;;3.20;2.50;;;34.90;34.50;;;41.19;19.14;102736.13;5012538;28;20675;-66
2023/09/04 10:10:30;;;;;;;2.40;2.03;;;35.00;34.10;;;40.69;19.71;102749.00;5017189;28;20282;-65
2023/09/04 10:13:08;;;;;;;3.17;2.90;;;34.70;33.10;;;40.03;20.26;102744.03;5025926;28;20199;-65
2023/09/04 10:15:38;;;;;;;3.20;2.10;;;34.80;34.10;;;39.17;20.90;102741.91;5021904;28;20265;-65
2023/09/04 10:18:12;;;;;;;4.10;2.47;;;34.40;33.70;;;38.19;21.85;102743.03;5018375;28;20195;-66